Time;durP1;ratioP1;P1;durP2;ratioP2;P2;SDS_P1;SDS_P2;PMS_P1;PMS_P2;Temp;Humidity;BMP_temperature;BMP_pressure;BME280_temperature;BME280_humidity;BME280_pressure;Samples;Min_cycle;Max_cycle;Signal;HPM_P1;HPM_P2
2022/01/17 00:02:00;;;;;;;3.33;3.23;;;6.40;99.90;6.10;103029.00;;;;5017911;28;20195;-67
2022/01/17 00:04:26;;;;;;;6.43;5.17;;;6.40;99.90;6.10;103019.00;;;;5034429;28;20182;-67
2022/01/17 00:06:52;;;;;;;1.87;1.77;;;6.40;99.90;5.90;103028.00;;;;5035489;28;20617;-67
2022/01/17 00:09:18;;;;;;;7.33;5.40;;;6.40;99.90;6.10;103029.00;;;;5035744;28;20211;-67
2022/01/17 00:11:48;;;;;;;1.17;1.07;;;6.40;99.90;6.40;103031.00;;;;5035396;28;20212;-67
2022/01/17 00:14:17;;;;;;;7.83;6.53;;;6.40;99.90;6.20;103013.00;;;;5035673;28;20178;-67
2022/01/17 00:16:50;;;;;;;2.57;2.37;;;6.40;99.90;6.30;103046.00;;;;5035501;28;20189;-68
2022/01/17 00:21:49;;;;;;;11.50;7.83;;;6.70;99.90;6.60;103055.00;;;;5035500;28;20194;-68
2022/01/17 00:24:16;;;;;;;2.00;1.90;;;6.60;99.90;6.40;103002.00;;;;5035610;28;20182;-67
2022/01/17 00:26:42;;;;;;;1.97;1.93;;;6.60;99.90;6.70;103056.00;;;;5017337;28;20179;-65
2022/01/17 00:29:10;;;;;;;11.57;5.43;;;6.70;99.90;6.50;103047.00;;;;5035210;28;20199;-65
2022/01/17 00:31:38;;;;;;;2.57;2.37;;;6.60;99.90;6.20;103054.00;;;;5033816;28;20245;-68
2022/01/17 00:34:04;;;;;;;3.63;3.33;;;6.50;99.90;6.50;103054.00;;;;5033973;28;20181;-67
2022/01/17 00:36:35;;;;;;;1.17;1.17;;;6.60;99.90;6.50;103062.00;;;;5017572;28;20181;-68
2022/01/17 00:39:01;;;;;;;0.73;0.73;;;6.60;99.90;7.40;103062.00;;;;5035047;28;20249;-66
2022/01/17 00:41:30;;;;;;;15.87;12.37;;;7.00;99.90;7.20;103059.00;;;;5017527;28;20586;-67
2022/01/17 00:43:56;;;;;;;23.97;12.77;;;7.10;99.90;7.40;103063.00;;;;5034893;28;20187;-67
2022/01/17 00:46:22;;;;;;;9.87;7.27;;;7.20;99.90;7.10;103061.00;;;;5017376;28;20182;-67
2022/01/17 00:48:48;;;;;;;2.30;2.13;;;7.10;99.90;7.00;103070.00;;;;5035051;28;20212;-67
2022/01/17 00:51:14;;;;;;;4.97;4.57;;;7.00;99.90;6.60;103058.00;;;;5033427;28;20274;-67
2022/01/17 00:53:41;;;;;;;11.83;5.53;;;6.90;99.90;6.70;103072.00;;;;5034771;28;20224;-68
2022/01/17 00:56:07;;;;;;;2.17;2.03;;;6.90;99.90;6.70;103067.00;;;;5032433;28;20212;-67
2022/01/17 00:58:33;;;;;;;4.50;4.17;;;6.80;99.90;6.40;103050.00;;;;5034660;28;20636;-67
2022/01/17 01:00:59;;;;;;;27.13;8.27;;;6.70;99.90;6.50;103062.00;;;;5033670;28;20538;-66
2022/01/17 01:03:25;;;;;;;5.10;4.70;;;6.70;99.90;6.90;103057.00;;;;5034976;28;20182;-67
2022/01/17 01:05:53;;;;;;;0.50;0.50;;;6.80;99.90;6.70;103067.00;;;;5033325;28;20178;-66
2022/01/17 01:08:20;;;;;;;4.47;4.10;;;6.80;99.90;6.40;103028.00;;;;5033405;28;20178;-68
2022/01/17 01:10:46;;;;;;;14.43;5.57;;;6.70;99.90;6.60;103077.00;;;;5034630;28;20546;-66
2022/01/17 01:13:12;;;;;;;8.43;7.37;;;6.70;99.90;6.50;103067.00;;;;5033006;28;20399;-66
2022/01/17 01:15:47;;;;;;;5.60;4.00;;;6.60;99.90;6.40;103088.00;;;;5033434;28;20559;-67
2022/01/17 01:18:17;;;;;;;11.83;10.80;;;6.60;99.90;6.50;103086.00;;;;5034311;28;20171;-68
2022/01/17 01:21:08;;;;;;;3.23;2.93;;;6.70;99.90;6.30;103095.00;;;;5049807;28;20200;-67
2022/01/17 01:29:03;;;;;;;17.33;15.27;;;6.70;99.90;6.90;103096.00;;;;5032946;28;20214;-66
2022/01/17 01:31:42;;;;;;;8.07;7.20;;;6.90;99.90;6.80;103079.00;;;;5032470;28;20221;-67
2022/01/17 01:34:09;;;;;;;3.57;2.97;;;6.90;99.90;6.70;103050.00;;;;5034384;28;20266;-66
2022/01/17 01:36:38;;;;;;;16.63;10.03;;;6.80;99.90;6.60;103083.00;;;;5032983;28;20635;-65
2022/01/17 01:39:09;;;;;;;6.03;5.57;;;6.80;99.90;6.90;103039.00;;;;5032422;28;20251;-66
2022/01/17 01:41:43;;;;;;;1.80;1.73;;;6.90;99.90;6.50;103087.00;;;;5034132;28;20163;-66
2022/01/17 01:44:19;;;;;;;3.43;3.23;;;6.90;99.90;6.30;103086.00;;;;5032538;28;20178;-66
2022/01/17 01:46:46;;;;;;;16.23;10.70;;;6.70;99.90;6.40;103080.00;;;;5032605;28;20700;-66
2022/01/17 01:49:14;;;;;;;8.53;7.20;;;6.60;99.90;6.60;103089.00;;;;5032718;28;20194;-66
2022/01/17 01:51:43;;;;;;;4.03;3.70;;;6.70;99.90;6.30;103083.00;;;;5032223;28;20255;-66
2022/01/17 01:54:09;;;;;;;0.77;0.60;;;6.60;99.90;6.30;103100.00;;;;5015923;28;20547;-66
2022/01/17 01:56:46;;;;;;;4.73;2.67;;;6.60;99.90;6.40;103099.00;;;;5032442;28;20627;-66
2022/01/17 01:59:14;;;;;;;1.60;1.50;;;6.60;99.90;6.20;103085.00;;;;5032471;28;20246;-67
2022/01/17 02:01:40;;;;;;;7.70;6.53;;;6.60;99.90;6.30;103082.00;;;;5032268;28;20633;-66
2022/01/17 02:04:07;;;;;;;6.73;6.07;;;6.60;99.90;6.20;103086.00;;;;5033490;28;20271;-66
2022/01/17 02:06:33;;;;;;;0.47;0.47;;;6.50;99.90;6.60;103083.00;;;;5031918;28;20645;-66
2022/01/17 02:09:04;;;;;;;8.83;6.97;;;6.60;99.90;6.40;103080.00;;;;5032290;28;20208;-66
2022/01/17 02:11:35;;;;;;;5.93;5.37;;;6.60;99.90;6.20;103085.00;;;;5015689;28;20208;-66
2022/01/17 02:14:03;;;;;;;3.90;3.20;;;6.70;99.90;6.60;103094.00;;;;5032096;28;20184;-66
2022/01/17 02:16:30;;;;;;;0.30;0.30;;;6.70;99.90;6.50;103095.00;;;;5032350;28;20196;-66
2022/01/17 02:18:56;;;;;;;3.70;3.50;;;6.80;99.90;6.60;103090.00;;;;5033201;28;20186;-66
2022/01/17 02:21:34;;;;;;;1.53;1.50;;;6.80;99.90;6.60;103093.00;;;;5031945;28;20177;-66
2022/01/17 02:24:01;;;;;;;3.13;2.93;;;6.80;99.90;6.90;103118.00;;;;5031925;28;20308;-66
2022/01/17 02:26:28;;;;;;;3.17;2.87;;;6.90;99.90;7.30;103112.00;;;;5032232;28;20282;-66
2022/01/17 02:28:56;;;;;;;2.77;2.67;;;7.10;99.90;6.90;103092.00;;;;5032991;28;20177;-66
2022/01/17 02:31:23;;;;;;;3.93;3.57;;;7.00;99.90;6.90;103074.00;;;;5031910;28;20218;-66
2022/01/17 02:33:51;;;;;;;1.83;1.73;;;6.90;99.90;6.40;103086.00;;;;5032981;28;20181;-66
2022/01/17 02:36:20;;;;;;;4.27;4.07;;;6.80;99.90;6.60;103077.00;;;;5033406;28;20179;-66
2022/01/17 02:38:46;;;;;;;3.13;2.10;;;6.80;99.90;6.40;103075.00;;;;5033401;28;20188;-66
2022/01/17 02:41:12;;;;;;;6.90;5.77;;;6.70;99.90;6.40;103090.00;;;;5032390;28;20250;-66
2022/01/17 02:43:39;;;;;;;8.43;5.13;;;6.70;99.90;6.60;103085.00;;;;5033180;28;20175;-67
2022/01/17 02:48:36;;;;;;;8.13;6.50;;;6.70;99.90;6.70;103085.00;;;;5031888;28;20185;-65
2022/01/17 02:51:07;;;;;;;1.97;1.83;;;6.80;99.90;7.10;103087.00;;;;5031483;28;20202;-66
2022/01/17 02:53:34;;;;;;;0.73;0.73;;;6.90;99.90;6.70;103076.00;;;;5032935;28;20210;-65
2022/01/17 02:56:05;;;;;;;2.73;2.50;;;6.90;99.90;6.90;103089.00;;;;5031923;28;20186;-65
2022/01/17 02:58:33;;;;;;;6.50;5.83;;;6.90;99.90;6.60;103069.00;;;;5033040;28;20188;-65
2022/01/17 03:01:05;;;;;;;3.07;2.87;;;6.90;99.90;6.50;103073.00;;;;5032754;28;20186;-65
2022/01/17 03:03:30;;;;;;;0.40;0.40;;;6.80;99.90;6.80;103074.00;;;;5031553;28;20697;-66
2022/01/17 03:05:58;;;;;;;1.80;1.73;;;6.80;99.90;6.40;103076.00;;;;5032891;28;20182;-66
2022/01/17 03:08:29;;;;;;;2.13;2.03;;;6.70;99.90;7.20;103036.00;;;;5031905;28;20320;-65
2022/01/17 03:10:55;;;;;;;1.17;1.17;;;6.90;99.90;7.90;103084.00;;;;5031973;28;20271;-66
2022/01/17 03:13:30;;;;;;;4.60;4.30;;;7.30;99.90;6.50;103077.00;;;;5031567;28;20674;-65
2022/01/17 03:15:58;;;;;;;4.30;3.83;;;7.00;99.90;6.30;103073.00;;;;5029387;28;20190;-66
2022/01/17 03:18:28;;;;;;;3.43;3.17;;;6.80;99.90;6.70;103082.00;;;;5033965;28;20182;-66
2022/01/17 03:20:55;;;;;;;1.53;1.47;;;6.80;99.90;6.40;103094.00;;;;5035376;28;20185;-66
2022/01/17 03:23:29;;;;;;;2.43;2.23;;;6.70;99.90;6.80;103088.00;;;;5019007;28;20553;-65
2022/01/17 03:25:56;;;;;;;4.83;3.50;;;6.70;99.90;7.40;103087.00;;;;5035105;28;20257;-66
2022/01/17 03:28:27;;;;;;;1.07;1.07;;;7.10;99.90;6.70;103086.00;;;;5036465;28;20182;-65
2022/01/17 03:30:56;;;;;;;3.97;2.97;;;6.90;99.90;6.80;103088.00;;;;5035998;28;20185;-65
2022/01/17 03:33:22;;;;;;;1.57;1.47;;;6.90;99.90;6.70;103077.00;;;;5034992;28;20300;-65
2022/01/17 03:35:54;;;;;;;7.93;6.57;;;6.90;99.90;6.70;103072.00;;;;5035225;28;20277;-66
2022/01/17 03:38:27;;;;;;;3.77;2.87;;;6.90;99.90;7.00;103057.00;;;;5036422;28;20188;-66
2022/01/17 03:40:53;;;;;;;0.30;0.30;;;6.90;99.90;7.70;103077.00;;;;5036011;28;20174;-66
2022/01/17 03:43:22;;;;;;;0.60;0.60;;;7.20;99.90;7.30;103077.00;;;;5036484;28;20190;-66
2022/01/17 03:45:57;;;;;;;2.00;1.87;;;7.20;99.90;7.40;103069.00;;;;5034862;28;20257;-66
2022/01/17 03:48:28;;;;;;;2.20;1.70;;;7.20;99.90;7.70;103091.00;;;;5035133;28;20227;-65
2022/01/17 03:50:55;;;;;;;0.33;0.33;;;7.40;99.90;7.40;103070.00;;;;5036019;28;20277;-65
2022/01/17 03:53:22;;;;;;;2.07;1.93;;;7.30;99.90;6.80;103072.00;;;;5034669;28;20742;-65
2022/01/17 03:55:48;;;;;;;2.10;1.53;;;7.00;99.90;6.50;103073.00;;;;5035927;28;20189;-65
2022/01/17 03:58:17;;;;;;;1.97;1.80;;;6.80;99.90;6.70;103043.00;;;;5051458;28;20252;-65
2022/01/17 04:00:49;;;;;;;0.47;0.47;;;6.70;99.90;6.20;103078.00;;;;5035864;28;20185;-66
2022/01/17 04:03:16;;;;;;;4.33;3.93;;;6.60;99.90;6.80;103087.00;;;;5034344;28;20201;-66
2022/01/17 04:05:47;;;;;;;11.13;6.00;;;6.70;99.90;6.20;103084.00;;;;5035657;28;20173;-66
2022/01/17 04:08:13;;;;;;;1.77;1.67;;;6.50;99.90;6.30;103084.00;;;;5034461;28;20626;-66
2022/01/17 04:10:41;;;;;;;1.40;1.40;;;6.50;99.90;6.20;103098.00;;;;5035705;28;20227;-65
2022/01/17 04:13:10;;;;;;;2.47;2.27;;;6.40;99.90;5.90;103099.00;;;;5035726;28;20207;-65
2022/01/17 04:15:37;;;;;;;2.23;1.13;;;6.30;99.90;6.10;103086.00;;;;5035098;28;20194;-66
2022/01/17 04:18:05;;;;;;;2.27;2.10;;;6.30;99.90;6.00;103079.00;;;;5034287;28;20185;-65
2022/01/17 04:20:32;;;;;;;1.37;1.33;;;6.20;99.90;5.80;103074.00;;;;5034089;28;20187;-66
2022/01/17 04:23:02;;;;;;;1.07;1.03;;;6.20;99.90;5.80;103081.00;;;;5034246;28;20218;-66
2022/01/17 04:25:36;;;;;;;4.40;4.10;;;6.00;99.90;5.60;103086.00;;;;5034310;28;20221;-65
2022/01/17 04:28:04;;;;;;;3.90;3.60;;;5.90;99.90;5.40;103095.00;;;;5034271;28;20177;-65
2022/01/17 04:30:33;;;;;;;5.20;4.77;;;5.90;99.90;5.60;103083.00;;;;5033447;28;20317;-65
2022/01/17 04:33:02;;;;;;;5.67;5.33;;;5.90;99.90;5.50;103079.00;;;;5034576;28;20224;-65
2022/01/17 04:35:29;;;;;;;0.97;0.97;;;5.90;99.90;5.60;103087.00;;;;5033962;28;20171;-65
2022/01/17 04:38:03;;;;;;;4.83;4.53;;;5.90;99.90;5.80;103076.00;;;;5034279;28;20174;-65
2022/01/17 04:40:35;;;;;;;5.07;3.97;;;5.90;99.90;5.80;103032.00;;;;5033933;28;20267;-66
2022/01/17 04:45:45;;;;;;;5.00;4.20;;;5.90;99.90;5.50;103075.00;;;;5034889;28;20209;-65
2022/01/17 04:48:12;;;;;;;1.93;1.90;;;5.90;99.90;5.40;103098.00;;;;5034300;28;20206;-65
2022/01/17 04:50:38;;;;;;;1.53;1.43;;;5.80;99.90;5.60;103094.00;;;;5033972;28;20200;-66
2022/01/17 04:53:08;;;;;;;2.50;2.30;;;5.90;99.90;5.50;103102.00;;;;5032968;28;20696;-65
2022/01/17 04:55:36;;;;;;;4.47;2.40;;;5.80;99.90;5.60;103077.00;;;;5034010;28;20176;-65
2022/01/17 04:58:03;;;;;;;5.17;4.43;;;5.80;99.90;5.50;103094.00;;;;5033352;28;20176;-65
2022/01/17 05:00:32;;;;;;;1.43;1.33;;;5.80;99.90;5.40;103081.00;;;;5033671;28;20650;-66
2022/01/17 05:02:57;;;;;;;1.40;1.30;;;5.70;99.90;5.50;103078.00;;;;5033166;28;20255;-65
2022/01/17 05:05:23;;;;;;;7.07;4.83;;;5.80;99.90;5.40;103092.00;;;;5034630;28;20214;-66
2022/01/17 05:07:50;;;;;;;3.87;3.27;;;5.70;99.90;5.30;103076.00;;;;5033433;28;20238;-66
2022/01/17 05:10:21;;;;;;;4.17;3.13;;;5.60;99.90;5.30;103098.00;;;;5016766;28;20196;-66
2022/01/17 05:12:47;;;;;;;1.03;1.00;;;5.60;99.90;5.30;103106.00;;;;5033235;28;20207;-66
2022/01/17 05:15:37;;;;;;;5.07;4.67;;;5.60;99.90;5.40;103096.00;;;;5049618;28;20214;-66
2022/01/17 05:20:42;;;;;;;0.60;0.60;;;5.70;99.90;5.80;103109.00;;;;5034557;28;20634;-66
2022/01/17 05:23:09;;;;;;;0.40;0.40;;;5.80;99.90;5.80;103116.00;;;;5032739;28;20180;-65
2022/01/17 05:25:36;;;;;;;2.90;2.80;;;5.80;99.90;6.20;103114.00;;;;5016841;28;20269;-65
2022/01/17 05:28:02;;;;;;;4.50;4.10;;;5.90;99.90;5.60;103107.00;;;;5033961;28;20253;-65
2022/01/17 05:30:31;;;;;;;8.33;4.40;;;5.80;99.90;5.50;103112.00;;;;5033947;28;20188;-65
2022/01/17 05:32:59;;;;;;;1.93;1.83;;;5.80;99.90;5.30;103104.00;;;;5032600;28;20250;-65
2022/01/17 05:35:25;;;;;;;12.80;8.07;;;5.70;99.90;5.80;103115.00;;;;5033270;28;20184;-65
2022/01/17 05:37:51;;;;;;;5.10;2.63;;;5.80;99.90;5.50;103109.00;;;;5016046;28;20187;-65
2022/01/17 05:40:18;;;;;;;2.97;2.77;;;5.80;99.90;5.30;103106.00;;;;5034476;28;20176;-65
2022/01/17 05:42:45;;;;;;;6.20;5.03;;;5.70;99.90;5.80;103103.00;;;;5031745;28;20192;-66
2022/01/17 05:45:13;;;;;;;11.90;8.47;;;5.80;99.90;6.00;103109.00;;;;5032446;28;20176;-66
2022/01/17 05:47:39;;;;;;;5.53;5.03;;;6.00;99.90;5.80;103105.00;;;;5033978;28;20222;-66
2022/01/17 05:50:07;;;;;;;2.50;2.30;;;5.90;99.90;5.60;103096.00;;;;5032497;28;20732;-66
2022/01/17 05:52:33;;;;;;;3.40;3.10;;;5.80;99.90;5.30;103114.00;;;;5016267;28;20298;-65
2022/01/17 05:55:00;;;;;;;10.07;8.30;;;5.80;99.90;5.80;103122.00;;;;5033684;28;20174;-65
2022/01/17 05:57:29;;;;;;;1.40;0.77;;;6.00;99.90;5.80;103124.00;;;;5032560;28;20270;-65
2022/01/17 05:59:55;;;;;;;3.80;2.77;;;6.10;99.90;5.80;103155.00;;;;5033520;28;20229;-66
2022/01/17 06:02:24;;;;;;;6.13;5.47;;;6.10;99.90;6.20;103163.00;;;;5033719;28;20196;-65
2022/01/17 06:04:52;;;;;;;7.97;6.43;;;6.20;99.90;6.30;103170.00;;;;5032356;28;20269;-65
2022/01/17 06:07:21;;;;;;;16.47;13.10;;;6.40;99.90;6.60;103170.00;;;;5032340;28;20198;-65
2022/01/17 06:09:49;;;;;;;13.67;9.77;;;6.50;99.90;6.70;103167.00;;;;5033762;28;20184;-65
2022/01/17 06:12:18;;;;;;;6.80;5.03;;;6.60;99.90;6.50;103172.00;;;;5032127;28;20199;-65
2022/01/17 06:14:47;;;;;;;20.97;15.90;;;6.70;99.90;6.50;103168.00;;;;5033050;28;20263;-65
2022/01/17 06:17:13;;;;;;;10.43;5.60;;;6.60;99.90;6.60;103172.00;;;;5032156;28;20179;-65
2022/01/17 06:19:39;;;;;;;6.97;6.27;;;6.70;99.90;6.40;103178.00;;;;5032227;28;20160;-65
2022/01/17 06:22:07;;;;;;;7.33;6.13;;;6.70;99.90;6.70;103175.00;;;;5033520;28;20199;-65
2022/01/17 06:24:33;;;;;;;3.37;3.20;;;6.80;99.90;6.80;103169.00;;;;5032224;28;20212;-65
2022/01/17 06:26:59;;;;;;;18.00;9.67;;;6.80;99.90;6.60;103178.00;;;;5031934;28;20641;-66
2022/01/17 06:29:26;;;;;;;3.87;3.50;;;6.80;99.90;6.50;103171.00;;;;5033143;28;20242;-65
2022/01/17 06:31:52;;;;;;;24.33;16.13;;;6.80;99.90;6.70;103128.00;;;;5032950;28;20574;-65
2022/01/17 06:34:21;;;;;;;10.53;8.63;;;6.80;99.90;6.80;103178.00;;;;5033462;28;20209;-65
2022/01/17 06:36:46;;;;;;;5.27;4.73;;;6.80;99.90;6.80;103174.00;;;;5033370;28;20601;-65
2022/01/17 06:39:14;;;;;;;0.40;0.40;;;6.90;99.90;7.00;103169.00;;;;5031773;28;20198;-65
2022/01/17 06:41:43;;;;;;;5.43;4.90;;;7.00;99.90;6.70;103176.00;;;;5033030;28;20652;-65
2022/01/17 06:44:08;;;;;;;15.57;8.57;;;7.00;99.90;7.10;103145.00;;;;5032848;28;20175;-65
2022/01/17 06:46:37;;;;;;;3.77;3.43;;;7.10;99.90;7.00;103195.00;;;;5032017;28;20512;-65
2022/01/17 06:49:04;;;;;;;20.63;10.60;;;7.00;99.90;6.80;103191.00;;;;5032037;28;20193;-66
2022/01/17 06:51:30;;;;;;;11.70;8.63;;;7.00;99.90;7.00;103195.00;;;;5033426;28;20230;-66
2022/01/17 06:53:56;;;;;;;14.57;8.30;;;7.00;99.90;7.40;103202.00;;;;5033849;28;20684;-66
2022/01/17 06:56:22;;;;;;;13.50;10.73;;;7.20;99.90;7.10;103193.00;;;;5018973;28;20182;-66
2022/01/17 06:58:48;;;;;;;14.07;11.70;;;7.10;99.90;6.90;103202.00;;;;5036069;28;20564;-66
2022/01/17 07:01:24;;;;;;;3.23;2.83;;;7.00;99.90;6.80;103196.00;;;;5036414;28;20220;-66
2022/01/17 07:03:55;;;;;;;7.80;3.57;;;7.00;99.90;6.90;103216.00;;;;5035725;28;20273;-66
2022/01/17 07:06:31;;;;;;;7.30;6.63;;;7.00;99.90;7.60;103170.00;;;;5035979;28;20171;-66
2022/01/17 07:09:19;;;;;;;14.90;7.13;;;7.30;99.90;7.70;103232.00;;;;5035827;28;20368;-65
2022/01/17 07:11:51;;;;;;;12.20;9.70;;;7.50;99.90;7.40;103255.00;;;;5036789;28;20304;-65
2022/01/17 07:14:20;;;;;;;16.83;11.07;;;7.40;99.90;7.20;103226.00;;;;5035301;28;20185;-65
2022/01/17 07:16:48;;;;;;;12.37;7.60;;;7.30;99.90;7.30;103227.00;;;;5036495;28;20529;-65
2022/01/17 07:19:20;;;;;;;7.17;6.67;;;7.30;99.90;7.40;103181.00;;;;5036444;28;20186;-65
2022/01/17 07:21:46;;;;;;;4.73;4.33;;;7.30;99.90;7.10;103219.00;;;;5035648;28;20174;-66
2022/01/17 07:24:15;;;;;;;11.20;3.90;;;7.30;99.90;7.40;103196.00;;;;5018748;28;20733;-66
2022/01/17 07:26:44;;;;;;;0.60;0.60;;;7.40;99.90;8.00;103219.00;;;;5035078;28;20179;-65
2022/01/17 07:29:40;;;;;;;0.30;0.30;;;7.60;99.90;8.10;103167.00;;;;5036531;28;20182;-65
2022/01/17 07:32:12;;;;;;;0.80;0.80;;;7.70;99.90;8.20;103195.00;;;;5018422;28;20623;-66
2022/01/17 07:34:40;;;;;;;4.40;4.20;;;7.80;99.90;7.50;103217.00;;;;5036268;28;20272;-66
2022/01/17 07:37:06;;;;;;;1.73;1.13;;;7.60;99.90;8.00;103210.00;;;;5036561;28;20526;-65
2022/01/17 07:39:32;;;;;;;3.20;3.00;;;7.70;99.90;7.50;103199.00;;;;5034789;28;20176;-65
2022/01/17 07:42:02;;;;;;;5.30;4.83;;;7.50;99.90;7.50;103197.00;;;;5036257;28;20178;-66
2022/01/17 07:44:30;;;;;;;2.73;2.57;;;7.50;99.90;7.30;103187.00;;;;5016960;28;20218;-67
2022/01/17 07:46:59;;;;;;;13.20;7.00;;;7.40;99.90;7.40;103200.00;;;;5016099;28;20187;-66
2022/01/17 07:49:59;;;;;;;1.60;1.50;;;7.40;99.90;7.40;103206.00;;;;5015177;28;20559;-66
2022/01/17 07:52:25;;;;;;;2.80;2.60;;;7.40;99.90;7.30;103216.00;;;;5031383;28;20763;-67
2022/01/17 07:54:51;;;;;;;16.33;9.47;;;7.30;99.90;7.30;103199.00;;;;5014703;28;20537;-65
2022/01/17 07:57:20;;;;;;;5.87;3.13;;;7.40;99.90;7.20;103213.00;;;;5014824;28;20232;-66
2022/01/17 07:59:51;;;;;;;0.20;0.20;;;7.30;99.90;7.40;103228.00;;;;5014758;28;20221;-67
2022/01/17 08:02:19;;;;;;;4.10;2.80;;;7.30;99.90;7.20;103228.00;;;;5015992;28;20191;-67
2022/01/17 08:05:07;;;;;;;0.40;0.40;;;7.30;99.90;7.60;103240.00;;;;5014318;28;20186;-66
2022/01/17 08:07:36;;;;;;;1.27;1.03;;;7.40;99.90;7.90;103239.00;;;;5014689;28;20186;-66
2022/01/17 08:10:07;;;;;;;2.40;2.30;;;7.70;99.90;8.40;103249.00;;;;5030976;28;20186;-67
2022/01/17 08:12:33;;;;;;;0.50;0.50;;;7.90;99.90;8.20;103239.00;;;;4998747;28;20272;-67
2022/01/17 08:15:05;;;;;;;3.23;2.93;;;8.00;99.90;7.70;103192.00;;;;4998405;28;20631;-66
2022/01/17 08:17:36;;;;;;;9.93;5.93;;;7.80;99.90;7.70;103223.00;;;;5015728;28;20267;-67
2022/01/17 08:20:03;;;;;;;7.43;3.77;;;7.70;99.90;7.00;103225.00;;;;5015184;28;20159;-66
2022/01/17 08:22:36;;;;;;;2.37;1.93;;;7.40;99.90;7.60;103237.00;;;;5014170;28;20253;-66
2022/01/17 08:25:06;;;;;;;4.03;3.27;;;7.50;99.90;7.80;103218.00;;;;5014360;28;20183;-66
2022/01/17 08:27:35;;;;;;;0.30;0.30;;;7.60;99.90;7.80;103212.00;;;;5014354;28;20207;-66
2022/01/17 08:30:04;;;;;;;0.50;0.50;;;7.60;99.90;7.60;103254.00;;;;5014394;28;20191;-66
2022/01/17 08:32:31;;;;;;;2.03;1.93;;;7.60;99.90;7.80;103248.00;;;;5015665;28;20567;-66
2022/01/17 08:35:09;;;;;;;7.37;3.50;;;7.60;99.90;7.40;103252.00;;;;5015254;28;20182;-66
2022/01/17 08:37:35;;;;;;;1.13;1.13;;;7.50;99.90;7.60;103220.00;;;;5014121;28;20204;-66
2022/01/17 08:40:08;;;;;;;3.07;2.07;;;7.50;99.90;7.20;103261.00;;;;5014232;28;20179;-66
2022/01/17 08:42:36;;;;;;;5.03;4.60;;;7.40;99.90;6.50;103253.00;;;;4998019;28;20779;-66
2022/01/17 08:45:08;;;;;;;0.50;0.50;;;7.10;99.90;7.00;103262.00;;;;5030439;28;20587;-66
2022/01/17 08:47:34;;;;;;;0.90;0.90;;;7.00;99.90;6.80;103259.00;;;;5014125;28;20229;-66
2022/01/17 08:50:07;;;;;;;0.80;0.80;;;7.10;99.90;6.70;103257.00;;;;5014084;28;20171;-66
2022/01/17 08:52:35;;;;;;;3.30;2.87;;;7.00;99.90;6.80;103222.00;;;;5031480;28;20220;-66
2022/01/17 08:55:13;;;;;;;9.10;5.03;;;7.00;99.90;6.90;103236.00;;;;5047469;28;20613;-66
2022/01/17 08:57:39;;;;;;;6.27;3.80;;;7.00;99.90;7.10;103263.00;;;;5013898;28;20180;-67
2022/01/17 09:00:13;;;;;;;8.03;5.93;;;7.10;99.90;7.30;103267.00;;;;5017875;28;20283;-67
2022/01/17 09:02:41;;;;;;;3.03;2.83;;;7.20;99.90;7.20;103248.00;;;;5026608;28;20213;-74
2022/01/17 09:05:12;;;;;;;1.13;1.07;;;7.20;99.90;7.00;103279.00;;;;5031991;28;20189;-67
2022/01/17 09:07:41;;;;;;;3.63;2.23;;;7.20;99.90;7.20;103263.00;;;;5034483;28;20178;-67
2022/01/17 09:10:28;;;;;;;3.27;2.97;;;7.20;99.90;7.30;103280.00;;;;5033795;28;20312;-65
2022/01/17 09:12:57;;;;;;;12.27;5.30;;;7.40;99.90;7.60;103275.00;;;;5034067;28;20297;-77
2022/01/17 09:15:46;;;;;;;7.17;4.03;;;7.50;99.90;7.30;103266.00;;;;5032732;28;20622;-66
2022/01/17 09:18:14;;;;;;;8.77;6.33;;;7.40;99.90;7.40;103243.00;;;;5034283;28;20606;-67
2022/01/17 09:20:43;;;;;;;2.63;2.37;;;7.50;99.90;7.40;103300.00;;;;5032962;28;20179;-66
2022/01/17 09:23:12;;;;;;;22.27;4.50;;;7.60;99.90;7.30;103319.00;;;;5032749;28;20627;-66
2022/01/17 09:25:38;;;;;;;3.83;3.37;;;7.60;99.90;7.10;103305.00;;;;5016566;28;20297;-66
2022/01/17 09:28:04;;;;;;;1.57;1.43;;;7.40;99.90;7.30;103275.00;;;;5033064;28;20201;-64
2022/01/17 09:30:31;;;;;;;0.93;0.63;;;7.40;99.90;7.50;103322.00;;;;5033034;28;20642;-67
2022/01/17 09:32:57;;;;;;;2.03;1.90;;;7.40;99.90;7.50;103274.00;;;;5032323;28;20797;-67
2022/01/17 09:35:23;;;;;;;0.30;0.30;;;7.60;99.90;7.60;103311.00;;;;5033948;28;20164;-68
2022/01/17 09:37:56;;;;;;;0.60;0.60;;;7.70;99.90;7.70;103311.00;;;;5032662;28;20179;-67
2022/01/17 09:40:23;;;;;;;6.20;2.47;;;7.60;99.90;8.20;103319.00;;;;5049391;28;20222;-67
2022/01/17 09:43:16;;;;;;;1.70;1.50;;;7.90;99.90;7.50;103301.00;;;;5032959;28;20180;-66
2022/01/17 09:45:42;;;;;;;0.93;0.93;;;7.60;99.90;7.10;103299.00;;;;5032586;28;20183;-66
2022/01/17 09:48:19;;;;;;;2.73;2.53;;;7.50;99.90;7.50;103323.00;;;;5032638;28;20187;-66
2022/01/17 09:51:04;;;;;;;0.40;0.40;;;7.50;99.90;7.70;103343.00;;;;5032847;28;20173;-67
2022/01/17 09:53:38;;;;;;;3.33;2.63;;;7.70;99.90;7.60;103336.00;;;;5030637;28;20243;-66
2022/01/17 09:56:08;;;;;;;9.63;2.83;;;7.70;99.90;8.00;103311.00;;;;5040912;28;20216;-66
2022/01/17 09:58:40;;;;;;;3.03;2.73;;;7.90;99.90;8.40;103365.00;;;;5041640;28;20593;-66
2022/01/17 10:01:07;;;;;;;10.77;4.50;;;8.20;99.90;8.30;103364.00;;;;5040091;28;20281;-66
2022/01/17 10:03:33;;;;;;;1.30;1.17;;;8.30;99.90;7.70;103350.00;;;;5042542;28;20197;-66
2022/01/17 10:06:02;;;;;;;5.70;2.00;;;8.20;99.90;8.10;103359.00;;;;5040788;28;20195;-66
2022/01/17 10:08:28;;;;;;;1.27;1.17;;;8.10;99.90;8.10;103363.00;;;;5040161;28;20190;-67
2022/01/17 10:10:59;;;;;;;2.10;0.93;;;8.20;99.90;8.40;103345.00;;;;5041285;28;20549;-66
2022/01/17 10:13:35;;;;;;;0.50;0.50;;;8.40;99.90;9.40;103320.00;;;;5033547;28;20240;-67
2022/01/17 10:16:19;;;;;;;0.73;0.73;;;9.00;99.90;9.60;103367.00;;;;5032169;28;20179;-66
2022/01/17 10:18:57;;;;;;;0.90;0.80;;;9.20;99.90;9.80;103346.00;;;;5032493;28;20630;-62
2022/01/17 10:36:01;;;;;;;1.73;1.47;;;8.30;99.90;8.00;103365.00;;;;5049097;28;20174;-65
2022/01/17 10:38:27;;;;;;;0.20;0.20;;;8.40;99.90;8.80;103377.00;;;;5049343;28;20631;-62
2022/01/17 10:41:01;;;;;;;3.93;2.10;;;8.70;99.90;8.20;103358.00;;;;5050555;28;20181;-64
2022/01/17 10:43:38;;;;;;;0.53;0.53;;;8.70;99.90;9.30;103389.00;;;;5050506;28;20250;-67
2022/01/17 10:46:11;;;;;;;0.87;0.73;;;9.10;99.90;10.00;103382.00;;;;5049602;28;20572;-67
2022/01/17 10:48:52;;;;;;;0.30;0.30;;;9.70;99.90;10.10;103375.00;;;;5048783;28;20164;-65
2022/01/17 10:51:29;;;;;;;0.43;0.43;;;9.90;99.90;10.80;103388.00;;;;5049203;28;20235;-72
2022/01/17 10:53:58;;;;;;;2.63;1.53;;;10.30;99.90;10.90;103387.00;;;;5036056;28;20203;-65
2022/01/17 10:56:26;;;;;;;3.80;2.20;;;10.60;99.90;10.90;103368.00;;;;5049331;28;20170;-65
2022/01/17 10:59:06;;;;;;;0.30;0.30;;;10.60;99.90;10.90;103377.00;;;;5032398;28;20269;-66
2022/01/17 11:01:50;;;;;;;0.50;0.50;;;10.60;99.90;10.70;103379.00;;;;5049085;28;20180;-64
2022/01/17 11:04:41;;;;;;;0.40;0.40;;;10.70;99.90;11.20;103388.00;;;;5048449;28;20188;-63
2022/01/17 11:07:18;;;;;;;0.50;0.50;;;10.80;99.90;11.10;103393.00;;;;5045656;28;20197;-61
2022/01/17 11:09:57;;;;;;;0.27;0.27;;;10.90;99.90;11.60;103404.00;;;;5082391;28;20179;-62
2022/01/17 11:12:35;;;;;;;0.20;0.20;;;11.10;99.90;11.80;103414.00;;;;5050053;28;20213;-62
2022/01/17 11:15:09;;;;;;;0.80;0.80;;;11.40;99.90;11.70;103424.00;;;;5049217;28;20186;-62
2022/01/17 11:17:52;;;;;;;0.77;0.77;;;11.40;99.90;12.00;103386.00;;;;5049756;28;20286;-62
2022/01/17 11:20:26;;;;;;;0.30;0.30;;;11.60;99.90;12.30;103416.00;;;;5050026;28;20208;-62
2022/01/17 11:23:03;;;;;;;0.30;0.30;;;11.90;99.90;12.60;103415.00;;;;5049843;28;20268;-62
2022/01/17 11:25:35;;;;;;;0.30;0.30;;;12.10;99.90;12.20;103384.00;;;;5049248;28;20181;-62
2022/01/17 11:28:09;;;;;;;0.30;0.30;;;12.10;99.90;12.90;103434.00;;;;5049672;28;20184;-62
2022/01/17 11:30:38;;;;;;;0.30;0.30;;;12.30;99.90;11.90;103422.00;;;;5081975;28;20164;-62
2022/01/17 11:33:16;;;;;;;0.30;0.30;;;12.10;99.90;12.50;103397.00;;;;5081452;28;20214;-63
2022/01/17 11:35:53;;;;;;;3.80;2.50;;;12.00;99.90;11.50;103398.00;;;;5049272;28;20185;-63
2022/01/17 11:38:29;;;;;;;0.40;0.40;;;11.70;99.90;12.50;103410.00;;;;5049339;28;20645;-65
2022/01/17 11:41:00;;;;;;;0.30;0.30;;;11.90;99.90;12.00;103414.00;;;;5082212;28;20639;-64
2022/01/17 11:43:41;;;;;;;0.20;0.20;;;12.10;99.90;12.60;103413.00;;;;5042887;28;20185;-64